Time;durP1;ratioP1;P1;durP2;ratioP2;P2;SDS_P1;SDS_P2;PMS_P1;PMS_P2;Temp;Humidity;BMP_temperature;BMP_pressure;BME280_temperature;BME280_humidity;BME280_pressure;Samples;Min_cycle;Max_cycle;Signal;HPM_P1;HPM_P2
2023/07/29 00:00:09;;;;;;;4.80;4.30;;;;;;;19.11;100.00;97790.47;4160433;28;20624;-79
2023/07/29 00:02:16;;;;;;;5.10;4.60;;;;;;;19.10;100.00;97782.69;4138488;28;21084;-79
2023/07/29 00:04:20;;;;;;;4.90;4.37;;;;;;;19.09;100.00;97787.16;4122884;28;20657;-78
2023/07/29 00:06:23;;;;;;;6.17;4.53;;;;;;;19.09;100.00;97786.31;4144252;28;20645;-78
2023/07/29 00:08:26;;;;;;;5.57;4.50;;;;;;;19.07;100.00;97783.84;4125459;28;20838;-78
2023/07/29 00:10:29;;;;;;;10.90;4.83;;;;;;;19.07;100.00;97778.56;4153126;28;20624;-78
2023/07/29 00:12:34;;;;;;;5.60;4.70;;;;;;;19.08;100.00;97782.03;4126386;28;20654;-79
2023/07/29 00:14:37;;;;;;;5.50;4.60;;;;;;;19.08;100.00;97785.50;4126793;28;20639;-80
2023/07/29 00:16:41;;;;;;;4.73;4.20;;;;;;;19.09;100.00;97781.03;4138032;28;20627;-78
2023/07/29 00:18:45;;;;;;;5.23;4.50;;;;;;;19.10;100.00;97788.78;4155160;28;20650;-78
2023/07/29 00:20:48;;;;;;;5.83;4.20;;;;;;;19.10;100.00;97785.34;4156047;28;20702;-78
2023/07/29 00:22:53;;;;;;;4.90;4.40;;;;;;;19.10;100.00;97796.72;4158693;28;20726;-80
2023/07/29 00:24:57;;;;;;;6.37;4.80;;;;;;;19.14;100.00;97797.22;4138463;28;21210;-78
2023/07/29 00:27:00;;;;;;;5.97;4.50;;;;;;;19.15;100.00;97790.94;4141140;28;20626;-78
2023/07/29 00:29:05;;;;;;;6.23;4.10;;;;;;;19.17;100.00;97788.97;4127271;28;21098;-78
2023/07/29 00:31:08;;;;;;;4.80;3.83;;;;;;;19.19;100.00;97789.63;4137403;28;20661;-78
2023/07/29 00:33:10;;;;;;;4.53;3.70;;;;;;;19.17;100.00;97781.88;4117183;28;20732;-78
2023/07/29 00:35:14;;;;;;;5.07;4.40;;;;;;;19.18;100.00;97780.84;4125360;28;21235;-78
2023/07/29 00:37:17;;;;;;;5.10;4.20;;;;;;;19.18;100.00;97780.84;4155713;28;20704;-78
2023/07/29 00:39:22;;;;;;;5.80;3.53;;;;;;;19.17;100.00;97770.44;4140392;28;20726;-79
2023/07/29 00:41:26;;;;;;;4.27;3.50;;;;;;;19.15;100.00;97773.25;4140248;28;20737;-80
2023/07/29 00:43:30;;;;;;;5.20;4.00;;;;;;;19.16;100.00;97774.09;4136956;28;20661;-80
2023/07/29 00:45:35;;;;;;;4.43;3.90;;;;;;;19.17;100.00;97768.66;4125419;28;20639;-78
2023/07/29 00:47:38;;;;;;;4.87;3.87;;;;;;;19.17;100.00;97767.81;4149335;28;20726;-79
2023/07/29 00:49:41;;;;;;;5.10;3.63;;;;;;;19.17;100.00;97770.44;4152747;28;21194;-78
2023/07/29 00:51:45;;;;;;;6.00;5.33;;;;;;;19.18;100.00;97767.63;4137043;28;20661;-78
2023/07/29 00:53:48;;;;;;;4.73;3.00;;;;;;;19.20;100.00;97763.03;4143606;28;21457;-78
2023/07/29 00:55:51;;;;;;;4.37;3.10;;;;;;;19.22;100.00;97774.25;4139258;28;20613;-80
2023/07/29 00:57:55;;;;;;;4.57;3.30;;;;;;;19.24;100.00;97777.56;4135586;28;20625;-79
2023/07/29 00:59:58;;;;;;;4.07;3.37;;;;;;;19.26;100.00;97770.31;4140611;28;20644;-78
2023/07/29 01:02:03;;;;;;;4.80;3.27;;;;;;;19.28;100.00;97767.50;4129610;28;20613;-79
2023/07/29 01:04:07;;;;;;;4.23;3.17;;;;;;;19.28;100.00;97765.66;4129248;28;21340;-78
2023/07/29 01:06:18;;;;;;;2.63;2.23;;;;;;;19.29;100.00;97755.91;4128892;28;20659;-78
2023/07/29 01:08:28;;;;;;;5.20;3.10;;;;;;;19.28;100.00;97756.91;4140441;28;20681;-78
2023/07/29 01:10:38;;;;;;;6.00;3.83;;;;;;;19.26;100.00;97757.06;4124915;28;20683;-78
2023/07/29 01:12:52;;;;;;;5.50;4.00;;;;;;;19.25;100.00;97754.59;4137846;28;20639;-79
2023/07/29 01:14:59;;;;;;;5.20;3.47;;;;;;;19.25;100.00;97766.00;4158632;28;21218;-78
2023/07/29 01:17:05;;;;;;;5.57;4.17;;;;;;;19.26;100.00;97761.53;4142233;28;20628;-78
2023/07/29 01:19:15;;;;;;;5.10;4.17;;;;;;;19.25;100.00;97760.69;4153276;28;20643;-79
2023/07/29 01:21:19;;;;;;;4.90;3.70;;;;;;;19.27;100.00;97760.53;4118190;28;20753;-78
2023/07/29 01:23:26;;;;;;;5.97;4.00;;;;;;;19.26;100.00;97761.53;4115798;28;21316;-78
2023/07/29 01:25:29;;;;;;;4.63;3.87;;;;;;;19.27;100.00;97755.25;4137438;28;20643;-79
2023/07/29 01:27:32;;;;;;;4.23;3.80;;;;;;;19.28;100.00;97746.34;4125053;28;20978;-79
2023/07/29 01:29:35;;;;;;;4.43;3.17;;;;;;;19.28;100.00;97741.03;4125508;28;20704;-80
2023/07/29 01:31:43;;;;;;;4.20;3.30;;;;;;;19.28;100.00;97733.09;4138625;28;20675;-78
2023/07/29 01:33:50;;;;;;;4.73;3.73;;;;;;;19.27;100.00;97734.91;4152390;28;20666;-78
2023/07/29 01:35:57;;;;;;;7.13;4.63;;;;;;;19.24;100.00;97737.88;4152889;28;20718;-78
2023/07/29 01:38:08;;;;;;;5.90;4.53;;;;;;;19.24;100.00;97739.72;4136508;28;20632;-78
2023/07/29 01:40:12;;;;;;;5.00;4.00;;;;;;;19.24;100.00;97729.13;4136336;28;20734;-79
2023/07/29 01:42:16;;;;;;;5.00;3.90;;;;;;;19.22;100.00;97724.00;4127408;28;20688;-79
2023/07/29 01:44:20;;;;;;;4.57;4.03;;;;;;;19.21;100.00;97727.63;4140935;28;20640;-85
2023/07/29 01:46:23;;;;;;;5.27;3.90;;;;;;;19.20;100.00;97736.59;4138182;28;21050;-84
2023/07/29 01:48:27;;;;;;;5.33;4.00;;;;;;;19.19;100.00;97726.16;4121203;28;20666;-84
2023/07/29 01:50:31;;;;;;;5.23;3.70;;;;;;;19.16;100.00;97735.25;4126600;28;20668;-84
2023/07/29 01:52:35;;;;;;;3.70;3.17;;;;;;;19.16;100.00;97737.09;4138805;28;20658;-85
2023/07/29 01:54:38;;;;;;;4.63;3.93;;;;;;;19.15;100.00;97727.47;4122451;28;21300;-84
2023/07/29 01:56:42;;;;;;;4.87;4.00;;;;;;;19.14;100.00;97726.66;4140281;28;21072;-85
2023/07/29 01:58:45;;;;;;;5.10;3.90;;;;;;;19.14;100.00;97731.09;4142179;28;20719;-85
2023/07/29 02:00:48;;;;;;;4.30;3.77;;;;;;;19.14;100.00;97736.41;4134102;28;20656;-85
2023/07/29 02:02:51;;;;;;;4.47;3.80;;;;;;;19.14;100.00;97731.09;4137611;28;20637;-85
2023/07/29 02:04:55;;;;;;;5.27;3.90;;;;;;;19.14;100.00;97729.31;4136006;28;20706;-83
2023/07/29 02:06:58;;;;;;;7.27;4.00;;;;;;;19.15;100.00;97719.53;4136871;28;20698;-84
2023/07/29 02:09:04;;;;;;;5.37;3.60;;;;;;;19.15;100.00;97719.53;4125002;28;20737;-84
2023/07/29 02:11:07;;;;;;;5.77;3.93;;;;;;;19.14;100.00;97728.47;4139197;28;20695;-83
2023/07/29 02:13:12;;;;;;;4.77;4.27;;;;;;;19.16;100.00;97719.38;4155494;28;20639;-86
2023/07/29 02:15:15;;;;;;;5.17;4.30;;;;;;;19.17;100.00;97728.13;4147625;28;20650;-84
2023/07/29 02:17:18;;;;;;;5.73;4.17;;;;;;;19.16;100.00;97731.78;4134398;28;20633;-85
2023/07/29 02:19:20;;;;;;;6.07;3.93;;;;;;;19.17;100.00;97728.13;4152815;28;20669;-85
2023/07/29 02:21:23;;;;;;;4.90;4.10;;;;;;;19.17;100.00;97731.63;4135890;28;20658;-84
2023/07/29 02:23:27;;;;;;;6.70;4.10;;;;;;;19.17;100.00;97736.06;4158353;28;20718;-84
2023/07/29 02:25:30;;;;;;;7.10;4.47;;;;;;;19.17;100.00;97736.06;4125375;28;20932;-85
2023/07/29 02:27:33;;;;;;;6.50;4.30;;;;;;;19.18;100.00;97722.69;4149385;28;20885;-84
2023/07/29 02:29:38;;;;;;;5.30;4.43;;;;;;;19.18;100.00;97729.78;4137696;28;20633;-85
2023/07/29 02:31:41;;;;;;;5.77;4.37;;;;;;;19.19;100.00;97721.69;4117506;28;20670;-85
2023/07/29 02:33:44;;;;;;;5.40;4.27;;;;;;;19.20;100.00;97739.22;4136135;28;20730;-85
2023/07/29 02:35:47;;;;;;;4.53;3.83;;;;;;;19.19;100.00;97726.97;4122996;28;20638;-85
2023/07/29 02:37:51;;;;;;;4.90;3.90;;;;;;;19.19;100.00;97726.97;4137901;28;20633;-85
2023/07/29 02:39:55;;;;;;;5.13;3.17;;;;;;;19.18;100.00;97721.84;4152917;28;21111;-84
2023/07/29 02:41:58;;;;;;;4.93;4.00;;;;;;;19.16;100.00;97714.09;4153215;28;20639;-85
2023/07/29 02:44:03;;;;;;;5.33;4.00;;;;;;;19.16;100.00;97718.56;4142557;28;21071;-85
2023/07/29 02:46:07;;;;;;;6.70;4.30;;;;;;;19.14;100.00;97710.81;4137405;28;20637;-85
2023/07/29 02:48:10;;;;;;;4.43;3.67;;;;;;;19.12;100.00;97710.13;4125847;28;20654;-84
2023/07/29 02:50:14;;;;;;;4.20;3.10;;;;;;;19.10;100.00;97706.81;4126755;28;20633;-84
2023/07/29 02:52:17;;;;;;;5.30;4.10;;;;;;;19.09;100.00;97702.56;4124208;28;20680;-83
2023/07/29 02:54:20;;;;;;;4.60;3.70;;;;;;;19.09;100.00;97696.41;4126613;28;20748;-85
2023/07/29 02:56:23;;;;;;;4.53;3.90;;;;;;;19.09;100.00;97691.13;4140999;28;21063;-82
2023/07/29 02:58:27;;;;;;;4.43;3.57;;;;;;;19.08;100.00;97705.34;4137232;28;20715;-84
2023/07/29 03:00:32;;;;;;;5.60;4.03;;;;;;;19.07;100.00;97701.06;4149797;28;20637;-85
2023/07/29 03:02:37;;;;;;;4.40;3.73;;;;;;;19.07;100.00;97703.69;4137027;28;20732;-83
2023/07/29 03:04:40;;;;;;;5.43;3.90;;;;;;;19.07;100.00;97701.88;4126349;28;21117;-85
2023/07/29 03:06:44;;;;;;;5.10;3.70;;;;;;;19.04;100.00;97696.91;4146537;28;20660;-85
2023/07/29 03:08:47;;;;;;;5.17;3.77;;;;;;;19.00;100.00;97689.44;4128169;28;20744;-85
2023/07/29 03:10:50;;;;;;;5.60;4.10;;;;;;;18.99;100.00;97686.00;4126476;28;20668;-85
2023/07/29 03:12:55;;;;;;;7.83;4.70;;;;;;;18.94;100.00;97692.75;4152852;28;20640;-85
2023/07/29 03:14:59;;;;;;;4.70;3.90;;;;;;;18.89;100.00;97685.31;4127596;28;20630;-85
2023/07/29 03:17:04;;;;;;;5.60;4.30;;;;;;;18.89;100.00;97673.94;4153454;28;20628;-85
2023/07/29 03:19:09;;;;;;;5.60;3.83;;;;;;;18.90;100.00;97675.59;4145852;28;21246;-85
2023/07/29 03:21:12;;;;;;;6.10;4.07;;;;;;;18.91;100.00;97669.28;4141183;28;20651;-86
2023/07/29 03:23:15;;;;;;;4.10;3.60;;;;;;;18.89;100.00;97668.63;4128569;28;20640;-85
2023/07/29 03:25:18;;;;;;;5.90;4.33;;;;;;;18.88;100.00;97661.69;4136604;28;20632;-85
2023/07/29 03:27:22;;;;;;;12.83;4.10;;;;;;;18.86;100.00;97660.22;4125705;28;20652;-85
2023/07/29 03:29:25;;;;;;;4.43;3.40;;;;;;;18.84;100.00;97654.25;4123003;28;20634;-86
2023/07/29 03:31:27;;;;;;;5.10;3.97;;;;;;;18.81;100.00;97647.50;4153348;28;21202;-85
2023/07/29 03:33:30;;;;;;;5.20;4.00;;;;;;;18.80;100.00;97659.06;4117792;28;20625;-86
2023/07/29 03:35:35;;;;;;;5.60;4.10;;;;;;;18.80;100.00;97658.25;4144385;28;20630;-85
2023/07/29 03:37:38;;;;;;;8.20;4.30;;;;;;;18.79;100.00;97664.50;4143543;28;20629;-85
2023/07/29 03:39:41;;;;;;;4.57;3.93;;;;;;;18.78;100.00;97658.41;4142544;28;20628;-85
2023/07/29 03:41:44;;;;;;;9.70;4.43;;;;;;;18.76;100.00;97662.19;4137216;28;20661;-85
2023/07/29 03:43:48;;;;;;;10.47;4.43;;;;;;;18.75;100.00;97666.66;4136586;28;20629;-83
2023/07/29 03:45:50;;;;;;;4.23;3.63;;;;;;;18.74;100.00;97670.28;4123293;28;21221;-85
2023/07/29 03:47:53;;;;;;;6.37;4.37;;;;;;;18.74;100.00;97678.22;4120243;28;20620;-85
2023/07/29 03:49:56;;;;;;;4.70;4.00;;;;;;;18.75;100.00;97684.31;4124284;28;20685;-85
2023/07/29 03:52:01;;;;;;;5.03;4.30;;;;;;;18.76;100.00;97678.88;4138839;28;20685;-82
2023/07/29 03:54:04;;;;;;;4.40;3.90;;;;;;;18.76;100.00;97684.16;4129756;28;20638;-82
2023/07/29 03:56:07;;;;;;;5.20;4.20;;;;;;;18.78;100.00;97676.06;4140744;28;20631;-83
2023/07/29 03:58:10;;;;;;;5.30;3.80;;;;;;;18.78;100.00;97671.63;4142209;28;21238;-84
2023/07/29 04:00:13;;;;;;;5.10;4.00;;;;;;;18.78;100.00;97671.63;4139766;28;20648;-85
2023/07/29 04:02:22;;;;;;;5.70;3.80;;;;;;;18.80;100.00;97674.09;4155334;28;20641;-85
2023/07/29 04:04:25;;;;;;;4.90;3.90;;;;;;;18.80;100.00;97663.53;4139208;28;20659;-85
2023/07/29 04:06:28;;;;;;;4.60;3.90;;;;;;;18.81;100.00;97658.09;4127039;28;20622;-84
2023/07/29 04:08:32;;;;;;;4.80;3.50;;;;;;;18.82;100.00;97661.53;4153648;28;21175;-85
2023/07/29 04:10:35;;;;;;;4.30;3.77;;;;;;;18.83;100.00;97655.28;4142537;28;20973;-85
2023/07/29 04:12:38;;;;;;;5.30;4.10;;;;;;;18.83;100.00;97656.09;4154709;28;20659;-82
2023/07/29 04:14:42;;;;;;;8.07;4.13;;;;;;;18.85;100.00;97656.75;4141472;28;20627;-86
2023/07/29 04:16:45;;;;;;;5.53;4.23;;;;;;;18.86;100.00;97655.75;4147711;28;20636;-85
2023/07/29 04:18:48;;;;;;;4.63;3.90;;;;;;;18.87;100.00;97665.34;4136640;28;20639;-86
2023/07/29 04:20:50;;;;;;;7.30;4.10;;;;;;;18.88;100.00;97666.16;4139173;28;20663;-85
2023/07/29 04:22:53;;;;;;;7.53;4.10;;;;;;;18.89;100.00;97687.16;4141565;28;20643;-85
2023/07/29 04:24:58;;;;;;;5.30;3.97;;;;;;;18.88;100.00;97696.06;4155319;28;20634;-85
2023/07/29 04:27:01;;;;;;;5.30;4.63;;;;;;;18.88;100.00;97688.13;4139466;28;20635;-85
2023/07/29 04:29:04;;;;;;;6.17;3.80;;;;;;;18.88;100.00;97684.66;4121341;28;20628;-86
2023/07/29 04:31:06;;;;;;;3.93;3.53;;;;;;;18.86;100.00;97679.53;4138289;28;21201;-83
2023/07/29 04:33:10;;;;;;;11.70;6.40;;;;;;;18.86;100.00;97684.84;4154968;28;20627;-85
2023/07/29 04:35:13;;;;;;;5.90;4.27;;;;;;;18.84;100.00;97692.09;4145856;28;20659;-85
2023/07/29 04:37:17;;;;;;;4.23;3.30;;;;;;;18.85;100.00;97692.94;4123681;28;20632;-86
2023/07/29 04:39:20;;;;;;;4.43;4.00;;;;;;;18.85;100.00;97693.75;4133299;28;20671;-85
2023/07/29 04:41:25;;;;;;;3.70;2.93;;;;;;;18.85;100.00;97680.53;4121508;28;20631;-84
2023/07/29 04:43:28;;;;;;;3.63;3.20;;;;;;;18.86;100.00;97679.53;4126339;28;20644;-85
2023/07/29 04:45:31;;;;;;;3.73;3.30;;;;;;;18.87;100.00;97680.34;4129746;28;20664;-85
2023/07/29 04:47:35;;;;;;;4.00;3.23;;;;;;;18.88;100.00;97680.19;4140579;28;20634;-85
2023/07/29 04:49:38;;;;;;;4.90;3.33;;;;;;;18.88;100.00;97692.59;4121667;28;20649;-86
2023/07/29 04:51:41;;;;;;;3.80;3.23;;;;;;;18.88;100.00;97692.59;4133439;28;20651;-84
2023/07/29 04:53:45;;;;;;;4.73;3.03;;;;;;;18.88;100.00;97697.88;4136498;28;21556;-85
2023/07/29 04:55:48;;;;;;;4.20;3.67;;;;;;;18.87;100.00;97707.63;4140532;28;20638;-85
2023/07/29 04:57:53;;;;;;;3.60;3.10;;;;;;;18.88;100.00;97690.78;4147709;28;20623;-84
2023/07/29 04:59:56;;;;;;;5.17;3.77;;;;;;;18.87;100.00;97694.41;4156504;28;20634;-86
2023/07/29 05:02:00;;;;;;;4.40;3.17;;;;;;;18.87;100.00;97697.06;4127978;28;21202;-85
2023/07/29 05:04:04;;;;;;;4.37;3.03;;;;;;;18.88;100.00;97708.47;4122673;28;20671;-85
2023/07/29 05:06:08;;;;;;;2.80;2.10;;;;;;;18.88;100.00;97738.34;4156220;28;20761;-85
2023/07/29 05:08:11;;;;;;;2.97;2.47;;;;;;;18.89;100.00;97732.91;4123676;28;21063;-86
2023/07/29 05:10:14;;;;;;;4.77;3.10;;;;;;;18.88;100.00;97736.56;4143938;28;20656;-86
2023/07/29 05:12:17;;;;;;;3.97;2.83;;;;;;;18.89;100.00;97738.19;4140798;28;21111;-86
2023/07/29 05:14:21;;;;;;;4.63;3.20;;;;;;;18.90;100.00;97739.03;4141066;28;20641;-87
2023/07/29 05:16:23;;;;;;;4.73;4.33;;;;;;;18.91;100.00;97736.22;4144377;28;20656;-83
2023/07/29 05:18:27;;;;;;;3.47;2.73;;;;;;;18.91;100.00;97725.66;4138573;28;20651;-85
2023/07/29 05:20:30;;;;;;;3.50;2.60;;;;;;;18.93;100.00;97706.97;4123257;28;20675;-85
2023/07/29 05:22:33;;;;;;;4.63;2.90;;;;;;;18.93;100.00;97701.69;4143754;28;20660;-85
2023/07/29 05:24:36;;;;;;;4.43;3.33;;;;;;;18.94;100.00;97703.31;4140993;28;21198;-84
2023/07/29 05:26:39;;;;;;;3.20;2.80;;;;;;;18.94;100.00;97713.91;4127954;28;21020;-85
2023/07/29 05:28:42;;;;;;;4.53;2.93;;;;;;;18.94;100.00;97705.97;4127483;28;20708;-86
2023/07/29 05:30:47;;;;;;;3.93;3.20;;;;;;;18.95;100.00;97695.22;4138465;28;20628;-85
2023/07/29 05:32:50;;;;;;;4.10;3.27;;;;;;;18.97;100.00;97692.41;4123015;28;20733;-85
2023/07/29 05:34:54;;;;;;;4.10;2.97;;;;;;;19.04;100.00;97682.88;4141832;28;20664;-85
2023/07/29 05:36:58;;;;;;;3.57;2.70;;;;;;;19.11;100.00;97689.13;4142781;28;20632;-86
2023/07/29 05:39:01;;;;;;;4.97;2.03;;;;;;;19.18;100.00;97688.28;4139873;28;20730;-85
2023/07/29 05:41:04;;;;;;;3.67;1.93;;;;;;;19.26;100.00;97692.75;4163453;28;20632;-85
2023/07/29 05:43:08;;;;;;;3.80;2.40;;;;;;;19.33;100.00;97696.38;4141175;28;20685;-84
2023/07/29 05:45:11;;;;;;;3.70;1.83;;;;;;;19.38;100.00;97705.47;4125061;28;20633;-86
2023/07/29 05:47:16;;;;;;;2.70;1.70;;;;;;;19.45;100.00;97711.72;4138377;28;20644;-84
2023/07/29 05:49:19;;;;;;;2.80;1.80;;;;;;;19.49;100.00;97703.28;4138103;28;20728;-84
2023/07/29 05:51:22;;;;;;;5.07;2.20;;;;;;;19.53;100.00;97703.78;4125807;28;20651;-84
2023/07/29 05:53:25;;;;;;;2.50;1.70;;;;;;;19.56;100.00;97699.00;4142604;28;21261;-84
2023/07/29 05:55:29;;;;;;;2.63;1.73;;;;;;;19.57;100.00;97703.25;4139955;28;20629;-84
2023/07/29 05:57:32;;;;;;;2.10;1.70;;;;;;;19.64;100.00;97698.97;4138921;28;20628;-83
2023/07/29 05:59:35;;;;;;;2.20;1.50;;;;;;;19.70;100.00;97706.22;4159214;28;20636;-85
2023/07/29 06:01:39;;;;;;;2.43;1.70;;;;;;;19.75;100.00;97708.34;4141920;28;20635;-84
2023/07/29 06:03:44;;;;;;;2.40;1.47;;;;;;;19.80;100.00;97706.00;4140325;28;20664;-83
2023/07/29 06:05:49;;;;;;;2.30;1.60;;;;;;;19.82;100.00;97707.50;4150937;28;20694;-85
2023/07/29 06:07:56;;;;;;;3.07;1.60;;;;;;;19.87;100.00;97702.53;4152765;28;21291;-85
2023/07/29 06:09:59;;;;;;;4.60;1.90;;;;;;;19.96;100.00;97698.88;4129646;28;20676;-85
2023/07/29 06:12:03;;;;;;;2.73;1.60;;;;;;;20.10;100.00;97701.63;4136235;28;20725;-85
2023/07/29 06:14:06;;;;;;;2.63;1.60;;;;;;;20.28;100.00;97702.19;4140559;28;20665;-85
2023/07/29 06:16:09;;;;;;;2.53;1.60;;;;;;;20.48;100.00;97685.69;4128549;28;21105;-84
2023/07/29 06:18:14;;;;;;;1.97;1.40;;;;;;;20.83;100.00;97698.38;4147427;28;20636;-84
2023/07/29 06:20:18;;;;;;;3.40;2.80;;;;;;;20.93;100.00;97694.50;4140409;28;21169;-85
2023/07/29 06:22:22;;;;;;;3.10;1.67;;;;;;;20.93;100.00;97696.31;4140471;28;20680;-84
2023/07/29 06:24:25;;;;;;;2.10;1.40;;;;;;;20.92;100.00;97684.88;4137275;28;20630;-84
2023/07/29 06:26:28;;;;;;;2.40;1.70;;;;;;;20.92;100.00;97684.88;4139416;28;20646;-84
2023/07/29 06:28:31;;;;;;;2.27;1.67;;;;;;;21.01;100.00;97690.94;4152313;28;20736;-84
2023/07/29 06:30:33;;;;;;;2.20;1.50;;;;;;;21.12;100.00;97686.03;4154751;28;20691;-85
2023/07/29 06:32:37;;;;;;;2.50;1.80;;;;;;;21.18;100.00;97685.31;4136504;28;20790;-85
2023/07/29 06:34:40;;;;;;;2.33;1.47;;;;;;;21.18;100.00;97687.13;4136549;28;20691;-85
2023/07/29 06:36:45;;;;;;;2.40;1.53;;;;;;;21.15;100.00;97684.84;4130999;28;21355;-84
2023/07/29 06:38:48;;;;;;;3.43;2.70;;;;;;;21.13;100.00;97686.88;4140870;28;20622;-85
2023/07/29 06:40:52;;;;;;;4.00;2.50;;;;;;;21.12;100.00;97683.38;4157078;28;21210;-85
2023/07/29 06:42:55;;;;;;;5.43;3.97;;;;;;;21.12;100.00;97687.84;4155253;28;20635;-86
2023/07/29 06:44:58;;;;;;;2.87;2.07;;;;;;;21.15;100.00;97684.84;4154127;28;20627;-86
2023/07/29 06:47:01;;;;;;;1.90;1.30;;;;;;;21.19;100.00;97686.97;4135048;28;20677;-83
2023/07/29 06:49:06;;;;;;;4.37;2.10;;;;;;;21.21;100.00;97687.59;4118780;28;20671;-86
2023/07/29 06:51:10;;;;;;;4.43;1.60;;;;;;;21.20;100.00;97693.94;4159015;28;20640;-85
2023/07/29 06:53:14;;;;;;;2.73;1.73;;;;;;;21.21;100.00;97694.75;4157085;28;20681;-85
2023/07/29 06:55:17;;;;;;;2.67;1.77;;;;;;;21.23;100.00;97704.19;4137791;28;21707;-85
2023/07/29 06:57:21;;;;;;;2.93;1.50;;;;;;;21.23;100.00;97696.22;4130259;28;21223;-85
2023/07/29 06:59:25;;;;;;;2.37;1.50;;;;;;;21.23;100.00;97703.34;4149490;28;20634;-83
2023/07/29 07:01:29;;;;;;;2.70;1.83;;;;;;;21.20;100.00;97703.69;4126131;28;20630;-84
2023/07/29 07:03:32;;;;;;;2.87;1.60;;;;;;;21.20;100.00;97709.00;4132108;28;20658;-83
2023/07/29 07:05:35;;;;;;;1.93;1.53;;;;;;;21.18;100.00;97708.38;4117833;28;21983;-84
2023/07/29 07:07:38;;;;;;;3.47;1.70;;;;;;;21.17;100.00;97709.34;4155593;28;21085;-83
2023/07/29 07:09:43;;;;;;;2.30;1.70;;;;;;;21.17;100.00;97714.66;4156479;28;20729;-85
2023/07/29 07:11:46;;;;;;;2.70;1.70;;;;;;;21.16;100.00;97713.03;4149437;28;20729;-83
2023/07/29 07:13:49;;;;;;;2.40;1.70;;;;;;;21.14;100.00;97713.22;4156430;28;20656;-84
2023/07/29 07:15:54;;;;;;;2.00;1.57;;;;;;;21.12;100.00;97715.19;4153476;28;21196;-82
2023/07/29 07:17:57;;;;;;;2.57;1.50;;;;;;;21.12;100.00;97717.84;4120839;28;20742;-85
2023/07/29 07:20:01;;;;;;;2.73;1.50;;;;;;;21.10;100.00;97709.25;4124046;28;20635;-83
2023/07/29 07:22:04;;;;;;;2.90;1.83;;;;;;;21.11;100.00;97715.38;4141308;28;20634;-84
2023/07/29 07:24:08;;;;;;;1.80;1.43;;;;;;;21.12;100.00;97717.03;4124160;28;20671;-84
2023/07/29 07:26:12;;;;;;;2.40;1.93;;;;;;;21.09;100.00;97723.53;4123827;28;20643;-85
2023/07/29 07:28:16;;;;;;;2.13;1.63;;;;;;;21.07;100.00;97725.53;4132682;28;20638;-84
2023/07/29 07:30:19;;;;;;;2.23;1.70;;;;;;;21.06;100.00;97731.00;4154649;28;20633;-84
2023/07/29 07:32:22;;;;;;;2.30;1.50;;;;;;;21.04;100.00;97735.69;4144800;28;21249;-84
2023/07/29 07:34:26;;;;;;;2.10;1.60;;;;;;;21.02;100.00;97737.69;4134160;28;20655;-78
2023/07/29 07:36:29;;;;;;;2.47;1.63;;;;;;;21.01;100.00;97736.03;4142211;28;20649;-79
2023/07/29 07:38:32;;;;;;;2.30;1.60;;;;;;;21.02;100.00;97741.16;4149616;28;20664;-78
2023/07/29 07:40:35;;;;;;;2.27;1.30;;;;;;;21.03;100.00;97747.28;4156990;28;20634;-78
2023/07/29 07:42:40;;;;;;;2.10;1.43;;;;;;;21.05;100.00;97748.78;4144205;28;20718;-77
2023/07/29 07:44:43;;;;;;;2.53;1.83;;;;;;;21.01;100.00;97736.03;4126069;28;20628;-77
2023/07/29 07:46:47;;;;;;;2.23;1.77;;;;;;;21.02;100.00;97737.69;4142337;28;20703;-78
2023/07/29 07:48:50;;;;;;;2.97;1.60;;;;;;;21.02;100.00;97729.75;4140747;28;20746;-79
2023/07/29 07:50:53;;;;;;;2.50;1.80;;;;;;;21.02;100.00;97730.56;4141542;28;20669;-78
2023/07/29 07:52:56;;;;;;;2.20;1.70;;;;;;;21.05;100.00;97734.66;4137628;28;20623;-79
2023/07/29 07:54:59;;;;;;;2.03;1.50;;;;;;;21.05;100.00;97737.31;4134183;28;21301;-77
2023/07/29 07:57:02;;;;;;;2.67;1.87;;;;;;;21.01;100.00;97731.56;4155926;28;20628;-78
2023/07/29 07:59:07;;;;;;;2.70;2.03;;;;;;;20.98;100.00;97737.22;4140818;28;20662;-79
2023/07/29 08:01:10;;;;;;;2.70;2.20;;;;;;;20.94;100.00;97725.31;4136392;28;21249;-80
2023/07/29 08:03:14;;;;;;;2.33;1.83;;;;;;;20.92;100.00;97722.00;4136864;28;20635;-80
2023/07/29 08:05:18;;;;;;;2.87;2.27;;;;;;;20.93;100.00;97722.84;4149066;28;20735;-78
2023/07/29 08:07:21;;;;;;;2.67;1.90;;;;;;;20.96;100.00;97728.63;4123248;28;20636;-80
2023/07/29 08:09:24;;;;;;;2.30;1.80;;;;;;;21.01;100.00;97726.25;4127494;28;20745;-79
2023/07/29 08:11:27;;;;;;;3.90;1.60;;;;;;;21.04;100.00;97733.03;4154883;28;20905;-77
2023/07/29 08:13:30;;;;;;;2.30;1.80;;;;;;;21.06;100.00;97728.38;4154441;28;20633;-80
2023/07/29 08:15:35;;;;;;;2.80;2.30;;;;;;;21.14;100.00;97725.63;4139018;28;21292;-84
2023/07/29 08:17:38;;;;;;;3.10;1.80;;;;;;;21.21;100.00;97737.19;4123545;28;20665;-86
2023/07/29 08:19:42;;;;;;;4.10;2.00;;;;;;;21.23;100.00;97741.34;4122299;28;20788;-84
2023/07/29 08:21:45;;;;;;;3.33;1.97;;;;;;;21.25;100.00;97726.03;4152775;28;20689;-83
2023/07/29 08:23:49;;;;;;;2.20;1.53;;;;;;;21.37;100.00;97738.69;4133739;28;20693;-83
2023/07/29 08:26:00;;;;;;;2.47;1.70;;;;;;;21.46;100.00;97740.31;4152378;28;21189;-83
2023/07/29 08:28:05;;;;;;;3.47;1.70;;;;;;;21.51;100.00;97737.94;4112532;28;20731;-83
2023/07/29 08:30:09;;;;;;;2.33;1.57;;;;;;;21.58;100.00;97740.69;4152065;28;20630;-83
2023/07/29 08:32:13;;;;;;;5.03;3.17;;;;;;;21.67;100.00;97744.94;4141130;28;20669;-80
2023/07/29 08:34:17;;;;;;;4.67;3.40;;;;;;;21.81;100.00;97759.06;4127421;28;20653;-80
2023/07/29 08:36:20;;;;;;;3.50;2.10;;;;;;;21.99;100.00;97764.81;4152446;28;20637;-79
2023/07/29 08:38:25;;;;;;;3.03;2.30;;;;;;;22.42;100.00;97762.16;4140745;28;21447;-80
2023/07/29 08:40:32;;;;;;;2.40;1.77;;;;;;;22.73;100.00;97766.22;4139689;28;20614;-81
2023/07/29 08:42:38;;;;;;;3.37;1.73;;;;;;;22.76;100.00;97760.53;4141752;28;20658;-80
2023/07/29 08:44:42;;;;;;;2.67;1.87;;;;;;;22.65;100.00;97762.84;4154405;28;21251;-79
2023/07/29 08:46:45;;;;;;;3.10;1.60;;;;;;;22.45;100.00;97763.63;4143501;28;20632;-84
2023/07/29 08:48:52;;;;;;;2.30;1.47;;;;;;;22.27;100.00;97756.03;4141022;28;20623;-82
2023/07/29 08:50:59;;;;;;;2.00;1.40;;;;;;;22.15;100.00;97753.19;4152548;28;20646;-85
2023/07/29 08:53:03;;;;;;;1.87;1.33;;;;;;;22.08;100.00;97762.91;4114039;28;20657;-86
2023/07/29 08:55:07;;;;;;;2.57;1.27;;;;;;;21.96;100.00;97746.56;4142193;28;20652;-83
2023/07/29 08:57:09;;;;;;;2.17;1.40;;;;;;;22.00;100.00;97747.06;4127784;28;20631;-77
2023/07/29 08:59:13;;;;;;;1.80;1.23;;;;;;;22.04;100.00;97748.31;4158089;28;20630;-76
2023/07/29 09:01:17;;;;;;;2.23;1.30;;;;;;;22.13;100.00;97741.91;4140040;28;21455;-77
2023/07/29 09:03:22;;;;;;;2.00;1.40;;;;;;;22.36;100.00;97759.44;4154767;28;21080;-80
2023/07/29 09:05:26;;;;;;;1.83;1.50;;;;;;;22.67;100.00;97758.16;4131977;28;20656;-77
2023/07/29 09:07:30;;;;;;;2.60;1.80;;;;;;;22.89;100.00;97754.53;4154711;28;20649;-83
2023/07/29 09:09:33;;;;;;;4.80;3.50;;;;;;;23.03;100.00;97746.50;4143681;28;20743;-77
2023/07/29 09:11:37;;;;;;;2.27;1.67;;;;;;;23.18;100.00;97749.91;4124649;28;21052;-78
2023/07/29 09:13:40;;;;;;;2.07;1.17;;;;;;;23.28;100.00;97748.59;4139494;28;21229;-77
2023/07/29 09:15:43;;;;;;;2.13;1.40;;;;;;;23.26;100.00;97758.63;4135608;28;20672;-76
2023/07/29 09:17:46;;;;;;;2.47;1.40;;;;;;;23.19;100.00;97750.75;4116221;28;20658;-78
2023/07/29 09:19:50;;;;;;;1.80;1.30;;;;;;;23.19;100.00;97747.06;4137782;28;20679;-76
2023/07/29 09:21:54;;;;;;;2.20;1.40;;;;;;;23.33;100.00;97753.34;4145742;28;20651;-78
2023/07/29 09:23:56;;;;;;;2.43;1.40;;;;;;;23.34;100.00;97745.16;4133497;28;20639;-75
2023/07/29 09:26:04;;;;;;;3.30;1.53;;;;;;;23.44;100.00;97750.16;4125565;28;20639;-75
2023/07/29 09:28:11;;;;;;;4.80;1.20;;;;;;;23.65;100.00;97743.00;4152388;28;20663;-80
2023/07/29 09:30:16;;;;;;;2.17;1.50;;;;;;;23.90;100.00;97739.66;4153824;28;20627;-75
2023/07/29 09:32:26;;;;;;;2.30;1.33;;;;;;;24.00;98.96;97739.34;4131863;28;21192;-77
2023/07/29 09:34:30;;;;;;;2.47;1.50;;;;;;;24.09;98.29;97740.81;4128006;28;20752;-78